Terminal Aerodrome Forecast
Issued by NWS

Home | Current Version | Previous Version | Text Only | Print | Product List | Glossary On
Versions: 1 2 3 4 5 6 7 8 9 10 11 12
031
FTUS44 KEPZ 281145
TAFDMN
TAF
KDMN 281145Z 2812/2912 VRB05KT P6SM SCT120 BKN250
     FM281900 11010KT P6SM VCTS SCT080CB BKN150 BKN200
     FM290300 14007KT P6SM FEW080 BKN250=

USA.gov is the U.S. government's official web portal to all federal, state and local government web resources and services.